sensor_id;sensor_type;location;lat;lon;timestamp;P1;durP1;ratioP1;P2;durP2;ratioP2
77870;SDS011;67067;46.850;7.578;2023-02-28T00:00:04;14.32;;;7.35;;
77870;SDS011;67067;46.850;7.578;2023-02-28T00:01:14;16.58;;;7.53;;
77870;SDS011;67067;46.850;7.578;2023-02-28T00:02:15;12.35;;;7.13;;
77870;SDS011;67067;46.850;7.578;2023-02-28T00:03:17;14.00;;;7.28;;
77870;SDS011;67067;46.850;7.578;2023-02-28T00:04:18;14.70;;;7.47;;
77870;SDS011;67067;46.850;7.578;2023-02-28T00:05:19;13.73;;;7.20;;
77870;SDS011;67067;46.850;7.578;2023-02-28T00:06:24;12.93;;;7.18;;
77870;SDS011;67067;46.850;7.578;2023-02-28T00:07:25;13.80;;;7.70;;
77870;SDS011;67067;46.850;7.578;2023-02-28T00:08:26;15.07;;;7.32;;
77870;SDS011;67067;46.850;7.578;2023-02-28T00:09:27;14.80;;;7.10;;
77870;SDS011;67067;46.850;7.578;2023-02-28T00:10:28;13.63;;;7.63;;
77870;SDS011;67067;46.850;7.578;2023-02-28T00:11:30;13.18;;;7.28;;
77870;SDS011;67067;46.850;7.578;2023-02-28T00:12:31;15.67;;;8.00;;
77870;SDS011;67067;46.850;7.578;2023-02-28T00:13:33;16.27;;;7.23;;
77870;SDS011;67067;46.850;7.578;2023-02-28T00:14:37;16.00;;;7.75;;
77870;SDS011;67067;46.850;7.578;2023-02-28T00:15:38;13.47;;;7.40;;
77870;SDS011;67067;46.850;7.578;2023-02-28T00:16:38;12.33;;;7.07;;
77870;SDS011;67067;46.850;7.578;2023-02-28T00:17:39;13.97;;;7.47;;
77870;SDS011;67067;46.850;7.578;2023-02-28T00:18:40;17.50;;;7.60;;
77870;SDS011;67067;46.850;7.578;2023-02-28T00:19:41;14.05;;;7.65;;
77870;SDS011;67067;46.850;7.578;2023-02-28T00:20:41;11.80;;;7.00;;
77870;SDS011;67067;46.850;7.578;2023-02-28T00:21:42;13.83;;;7.57;;
77870;SDS011;67067;46.850;7.578;2023-02-28T00:22:44;12.88;;;7.00;;
77870;SDS011;67067;46.850;7.578;2023-02-28T00:23:46;14.40;;;7.60;;
77870;SDS011;67067;46.850;7.578;2023-02-28T00:24:47;15.13;;;7.28;;
77870;SDS011;67067;46.850;7.578;2023-02-28T00:25:47;14.43;;;7.60;;
77870;SDS011;67067;46.850;7.578;2023-02-28T00:26:48;14.37;;;7.30;;
77870;SDS011;67067;46.850;7.578;2023-02-28T00:27:48;15.30;;;7.70;;
77870;SDS011;67067;46.850;7.578;2023-02-28T00:28:51;15.07;;;7.18;;
77870;SDS011;67067;46.850;7.578;2023-02-28T00:29:52;13.50;;;7.32;;
77870;SDS011;67067;46.850;7.578;2023-02-28T00:30:55;13.48;;;7.70;;
77870;SDS011;67067;46.850;7.578;2023-02-28T00:32:57;15.60;;;7.47;;
77870;SDS011;67067;46.850;7.578;2023-02-28T00:33:59;13.45;;;7.65;;
77870;SDS011;67067;46.850;7.578;2023-02-28T00:35:00;15.57;;;7.20;;
77870;SDS011;67067;46.850;7.578;2023-02-28T00:36:07;17.73;;;7.87;;
77870;SDS011;67067;46.850;7.578;2023-02-28T00:37:11;14.02;;;7.95;;
77870;SDS011;67067;46.850;7.578;2023-02-28T00:38:13;11.60;;;7.45;;
77870;SDS011;67067;46.850;7.578;2023-02-28T00:40:17;13.80;;;7.60;;
77870;SDS011;67067;46.850;7.578;2023-02-28T00:41:17;12.98;;;7.40;;
77870;SDS011;67067;46.850;7.578;2023-02-28T00:42:18;14.53;;;7.10;;
77870;SDS011;67067;46.850;7.578;2023-02-28T00:43:18;14.93;;;7.60;;
77870;SDS011;67067;46.850;7.578;2023-02-28T00:44:19;14.50;;;7.90;;
77870;SDS011;67067;46.850;7.578;2023-02-28T00:45:21;14.90;;;7.90;;
77870;SDS011;67067;46.850;7.578;2023-02-28T00:46:22;14.33;;;7.67;;
77870;SDS011;67067;46.850;7.578;2023-02-28T00:47:24;15.68;;;7.85;;
77870;SDS011;67067;46.850;7.578;2023-02-28T00:48:24;13.47;;;7.40;;
77870;SDS011;67067;46.850;7.578;2023-02-28T00:49:26;13.17;;;7.43;;
77870;SDS011;67067;46.850;7.578;2023-02-28T00:50:29;16.88;;;8.32;;
77870;SDS011;67067;46.850;7.578;2023-02-28T00:51:31;15.00;;;7.68;;
77870;SDS011;67067;46.850;7.578;2023-02-28T00:52:33;18.20;;;8.40;;
77870;SDS011;67067;46.850;7.578;2023-02-28T00:53:34;14.10;;;7.97;;
77870;SDS011;67067;46.850;7.578;2023-02-28T00:54:35;17.20;;;8.93;;
77870;SDS011;67067;46.850;7.578;2023-02-28T00:55:35;13.40;;;7.60;;
77870;SDS011;67067;46.850;7.578;2023-02-28T00:56:36;15.90;;;7.60;;
77870;SDS011;67067;46.850;7.578;2023-02-28T00:57:38;15.05;;;7.55;;
77870;SDS011;67067;46.850;7.578;2023-02-28T00:58:38;16.30;;;7.53;;
77870;SDS011;67067;46.850;7.578;2023-02-28T00:59:42;13.60;;;7.78;;
77870;SDS011;67067;46.850;7.578;2023-02-28T01:00:42;14.33;;;7.53;;
77870;SDS011;67067;46.850;7.578;2023-02-28T01:01:48;15.25;;;7.75;;
77870;SDS011;67067;46.850;7.578;2023-02-28T01:02:49;16.23;;;7.93;;
77870;SDS011;67067;46.850;7.578;2023-02-28T01:03:52;16.53;;;8.20;;
77870;SDS011;67067;46.850;7.578;2023-02-28T01:04:52;16.02;;;7.95;;
77870;SDS011;67067;46.850;7.578;2023-02-28T01:05:53;13.88;;;7.68;;
77870;SDS011;67067;46.850;7.578;2023-02-28T01:06:54;15.88;;;7.95;;
77870;SDS011;67067;46.850;7.578;2023-02-28T01:07:57;13.93;;;7.13;;
77870;SDS011;67067;46.850;7.578;2023-02-28T01:08:58;14.75;;;7.80;;
77870;SDS011;67067;46.850;7.578;2023-02-28T01:10:02;13.63;;;7.90;;
77870;SDS011;67067;46.850;7.578;2023-02-28T01:11:07;14.50;;;7.72;;
77870;SDS011;67067;46.850;7.578;2023-02-28T01:12:14;15.23;;;7.88;;
77870;SDS011;67067;46.850;7.578;2023-02-28T01:13:15;16.58;;;8.20;;
77870;SDS011;67067;46.850;7.578;2023-02-28T01:14:16;17.30;;;8.13;;
77870;SDS011;67067;46.850;7.578;2023-02-28T01:15:22;16.15;;;7.63;;
77870;SDS011;67067;46.850;7.578;2023-02-28T01:16:24;14.35;;;8.23;;
77870;SDS011;67067;46.850;7.578;2023-02-28T01:17:25;14.40;;;8.00;;
77870;SDS011;67067;46.850;7.578;2023-02-28T01:18:26;15.80;;;8.13;;
77870;SDS011;67067;46.850;7.578;2023-02-28T01:19:27;14.67;;;8.37;;
77870;SDS011;67067;46.850;7.578;2023-02-28T01:20:27;13.90;;;7.90;;
77870;SDS011;67067;46.850;7.578;2023-02-28T01:21:28;14.13;;;7.80;;
77870;SDS011;67067;46.850;7.578;2023-02-28T01:22:34;17.55;;;8.23;;
77870;SDS011;67067;46.850;7.578;2023-02-28T01:23:35;12.70;;;7.35;;
77870;SDS011;67067;46.850;7.578;2023-02-28T01:25:38;14.95;;;7.93;;
77870;SDS011;67067;46.850;7.578;2023-02-28T01:26:38;15.35;;;8.05;;
77870;SDS011;67067;46.850;7.578;2023-02-28T01:27:41;14.77;;;8.15;;
77870;SDS011;67067;46.850;7.578;2023-02-28T01:28:44;15.50;;;7.90;;
77870;SDS011;67067;46.850;7.578;2023-02-28T01:29:47;14.55;;;7.93;;
77870;SDS011;67067;46.850;7.578;2023-02-28T01:30:50;16.63;;;8.23;;
77870;SDS011;67067;46.850;7.578;2023-02-28T01:31:50;14.90;;;7.90;;
77870;SDS011;67067;46.850;7.578;2023-02-28T01:32:51;17.03;;;8.77;;
77870;SDS011;67067;46.850;7.578;2023-02-28T01:33:53;15.10;;;8.25;;
77870;SDS011;67067;46.850;7.578;2023-02-28T01:34:54;17.40;;;8.10;;
77870;SDS011;67067;46.850;7.578;2023-02-28T01:35:57;17.75;;;8.05;;
77870;SDS011;67067;46.850;7.578;2023-02-28T01:36:59;16.00;;;8.05;;
77870;SDS011;67067;46.850;7.578;2023-02-28T01:38:00;17.97;;;8.63;;
77870;SDS011;67067;46.850;7.578;2023-02-28T01:39:00;15.73;;;7.93;;
77870;SDS011;67067;46.850;7.578;2023-02-28T01:40:01;15.93;;;8.30;;
77870;SDS011;67067;46.850;7.578;2023-02-28T01:42:03;14.75;;;8.02;;
77870;SDS011;67067;46.850;7.578;2023-02-28T01:43:07;18.80;;;7.70;;
77870;SDS011;67067;46.850;7.578;2023-02-28T01:45:57;17.42;;;8.65;;
77870;SDS011;67067;46.850;7.578;2023-02-28T01:46:59;15.88;;;8.23;;
77870;SDS011;67067;46.850;7.578;2023-02-28T01:48:03;14.97;;;7.67;;
77870;SDS011;67067;46.850;7.578;2023-02-28T01:49:11;14.18;;;8.07;;
77870;SDS011;67067;46.850;7.578;2023-02-28T01:50:19;16.55;;;8.43;;
77870;SDS011;67067;46.850;7.578;2023-02-28T01:51:42;14.48;;;8.32;;
77870;SDS011;67067;46.850;7.578;2023-02-28T01:52:50;15.60;;;8.55;;
77870;SDS011;67067;46.850;7.578;2023-02-28T01:53:58;16.38;;;8.43;;
77870;SDS011;67067;46.850;7.578;2023-02-28T01:55:04;17.77;;;8.68;;
77870;SDS011;67067;46.850;7.578;2023-02-28T01:56:10;16.73;;;8.50;;
77870;SDS011;67067;46.850;7.578;2023-02-28T01:57:15;13.73;;;8.13;;
77870;SDS011;67067;46.850;7.578;2023-02-28T01:58:18;18.10;;;8.13;;
77870;SDS011;67067;46.850;7.578;2023-02-28T01:59:22;16.05;;;8.10;;
77870;SDS011;67067;46.850;7.578;2023-02-28T02:00:30;16.25;;;7.88;;
77870;SDS011;67067;46.850;7.578;2023-02-28T02:01:31;17.63;;;8.05;;
77870;SDS011;67067;46.850;7.578;2023-02-28T02:02:35;13.93;;;8.32;;
77870;SDS011;67067;46.850;7.578;2023-02-28T02:03:36;14.48;;;7.88;;
77870;SDS011;67067;46.850;7.578;2023-02-28T02:04:38;17.77;;;7.93;;
77870;SDS011;67067;46.850;7.578;2023-02-28T02:05:48;17.17;;;8.15;;
77870;SDS011;67067;46.850;7.578;2023-02-28T02:06:49;17.77;;;9.10;;
77870;SDS011;67067;46.850;7.578;2023-02-28T02:07:51;15.93;;;8.60;;
77870;SDS011;67067;46.850;7.578;2023-02-28T02:08:55;16.75;;;8.70;;
77870;SDS011;67067;46.850;7.578;2023-02-28T02:09:59;17.35;;;8.60;;
77870;SDS011;67067;46.850;7.578;2023-02-28T02:11:02;16.10;;;8.63;;
77870;SDS011;67067;46.850;7.578;2023-02-28T02:12:08;14.55;;;8.35;;
77870;SDS011;67067;46.850;7.578;2023-02-28T02:15:00;16.60;;;8.35;;
77870;SDS011;67067;46.850;7.578;2023-02-28T02:24:19;17.27;;;8.55;;
77870;SDS011;67067;46.850;7.578;2023-02-28T02:36:25;16.10;;;8.32;;
77870;SDS011;67067;46.850;7.578;2023-02-28T02:37:40;17.05;;;8.82;;
77870;SDS011;67067;46.850;7.578;2023-02-28T02:41:36;15.18;;;8.27;;
77870;SDS011;67067;46.850;7.578;2023-02-28T02:42:56;16.20;;;8.27;;
77870;SDS011;67067;46.850;7.578;2023-02-28T02:44:05;15.65;;;8.20;;
77870;SDS011;67067;46.850;7.578;2023-02-28T02:45:14;18.67;;;8.98;;
77870;SDS011;67067;46.850;7.578;2023-02-28T02:46:21;16.30;;;8.82;;
77870;SDS011;67067;46.850;7.578;2023-02-28T02:47:42;19.05;;;9.40;;
77870;SDS011;67067;46.850;7.578;2023-02-28T02:48:45;15.70;;;8.55;;
77870;SDS011;67067;46.850;7.578;2023-02-28T02:49:49;19.42;;;9.10;;
77870;SDS011;67067;46.850;7.578;2023-02-28T02:50:54;14.98;;;7.80;;
77870;SDS011;67067;46.850;7.578;2023-02-28T02:51:59;17.08;;;8.82;;
77870;SDS011;67067;46.850;7.578;2023-02-28T02:53:06;19.67;;;8.90;;
77870;SDS011;67067;46.850;7.578;2023-02-28T02:54:09;19.35;;;8.85;;
77870;SDS011;67067;46.850;7.578;2023-02-28T02:55:16;20.00;;;9.32;;
77870;SDS011;67067;46.850;7.578;2023-02-28T02:56:21;18.20;;;8.82;;
77870;SDS011;67067;46.850;7.578;2023-02-28T02:57:35;16.50;;;8.25;;
77870;SDS011;67067;46.850;7.578;2023-02-28T02:58:41;14.52;;;8.20;;
77870;SDS011;67067;46.850;7.578;2023-02-28T02:59:45;15.40;;;8.65;;
77870;SDS011;67067;46.850;7.578;2023-02-28T03:00:51;15.00;;;8.15;;
77870;SDS011;67067;46.850;7.578;2023-02-28T03:01:55;16.75;;;8.95;;
77870;SDS011;67067;46.850;7.578;2023-02-28T03:02:59;17.80;;;8.75;;
77870;SDS011;67067;46.850;7.578;2023-02-28T03:04:07;15.07;;;8.90;;
77870;SDS011;67067;46.850;7.578;2023-02-28T03:05:21;16.02;;;8.07;;
77870;SDS011;67067;46.850;7.578;2023-02-28T03:06:26;16.02;;;8.60;;
77870;SDS011;67067;46.850;7.578;2023-02-28T03:07:27;19.20;;;9.07;;
77870;SDS011;67067;46.850;7.578;2023-02-28T03:08:33;17.30;;;9.63;;
77870;SDS011;67067;46.850;7.578;2023-02-28T03:09:35;17.98;;;9.07;;
77870;SDS011;67067;46.850;7.578;2023-02-28T03:10:41;17.20;;;9.15;;
77870;SDS011;67067;46.850;7.578;2023-02-28T03:11:54;18.17;;;9.02;;
77870;SDS011;67067;46.850;7.578;2023-02-28T03:15:36;19.45;;;9.20;;
77870;SDS011;67067;46.850;7.578;2023-02-28T03:23:19;17.20;;;8.98;;
77870;SDS011;67067;46.850;7.578;2023-02-28T03:27:13;16.63;;;8.60;;
77870;SDS011;67067;46.850;7.578;2023-02-28T03:28:25;17.42;;;8.90;;
77870;SDS011;67067;46.850;7.578;2023-02-28T03:29:47;17.17;;;8.75;;
77870;SDS011;67067;46.850;7.578;2023-02-28T03:31:01;21.25;;;9.50;;
77870;SDS011;67067;46.850;7.578;2023-02-28T03:32:42;19.63;;;9.20;;
77870;SDS011;67067;46.850;7.578;2023-02-28T03:33:50;20.25;;;9.27;;
77870;SDS011;67067;46.850;7.578;2023-02-28T03:34:58;16.50;;;8.90;;
77870;SDS011;67067;46.850;7.578;2023-02-28T03:36:17;16.13;;;8.90;;
77870;SDS011;67067;46.850;7.578;2023-02-28T03:37:22;18.15;;;9.40;;
77870;SDS011;67067;46.850;7.578;2023-02-28T03:39:28;16.63;;;8.63;;
77870;SDS011;67067;46.850;7.578;2023-02-28T03:40:36;17.45;;;8.82;;
77870;SDS011;67067;46.850;7.578;2023-02-28T03:41:48;18.27;;;8.48;;
77870;SDS011;67067;46.850;7.578;2023-02-28T03:42:56;20.77;;;9.75;;
77870;SDS011;67067;46.850;7.578;2023-02-28T03:44:04;18.50;;;8.98;;
77870;SDS011;67067;46.850;7.578;2023-02-28T03:45:10;15.02;;;8.65;;
77870;SDS011;67067;46.850;7.578;2023-02-28T03:46:18;17.35;;;8.82;;
77870;SDS011;67067;46.850;7.578;2023-02-28T03:48:40;16.50;;;9.25;;
77870;SDS011;67067;46.850;7.578;2023-02-28T03:49:52;15.63;;;9.15;;
77870;SDS011;67067;46.850;7.578;2023-02-28T03:50:57;17.70;;;9.18;;
77870;SDS011;67067;46.850;7.578;2023-02-28T03:52:02;17.08;;;9.27;;
77870;SDS011;67067;46.850;7.578;2023-02-28T03:53:10;18.73;;;9.40;;
77870;SDS011;67067;46.850;7.578;2023-02-28T03:54:16;18.50;;;9.38;;
77870;SDS011;67067;46.850;7.578;2023-02-28T03:55:21;17.17;;;8.85;;
77870;SDS011;67067;46.850;7.578;2023-02-28T03:56:22;16.98;;;9.32;;
77870;SDS011;67067;46.850;7.578;2023-02-28T03:57:36;18.90;;;9.98;;
77870;SDS011;67067;46.850;7.578;2023-02-28T03:58:47;17.92;;;9.25;;
77870;SDS011;67067;46.850;7.578;2023-02-28T03:59:49;17.38;;;8.82;;
77870;SDS011;67067;46.850;7.578;2023-02-28T04:01:00;18.80;;;9.30;;
77870;SDS011;67067;46.850;7.578;2023-02-28T04:02:08;19.38;;;9.10;;
77870;SDS011;67067;46.850;7.578;2023-02-28T04:03:11;18.95;;;9.38;;
77870;SDS011;67067;46.850;7.578;2023-02-28T04:04:15;19.08;;;9.48;;
77870;SDS011;67067;46.850;7.578;2023-02-28T04:05:19;19.23;;;9.77;;
77870;SDS011;67067;46.850;7.578;2023-02-28T04:06:22;17.75;;;9.50;;
77870;SDS011;67067;46.850;7.578;2023-02-28T04:07:28;20.33;;;9.82;;
77870;SDS011;67067;46.850;7.578;2023-02-28T04:08:30;19.23;;;9.60;;
77870;SDS011;67067;46.850;7.578;2023-02-28T04:09:30;18.97;;;9.37;;
77870;SDS011;67067;46.850;7.578;2023-02-28T04:10:31;17.07;;;9.37;;
77870;SDS011;67067;46.850;7.578;2023-02-28T04:12:55;17.13;;;8.90;;
77870;SDS011;67067;46.850;7.578;2023-02-28T04:13:56;18.87;;;9.33;;
77870;SDS011;67067;46.850;7.578;2023-02-28T04:14:56;19.83;;;9.30;;
77870;SDS011;67067;46.850;7.578;2023-02-28T04:15:57;18.80;;;9.40;;
77870;SDS011;67067;46.850;7.578;2023-02-28T04:17:00;16.80;;;9.35;;
77870;SDS011;67067;46.850;7.578;2023-02-28T04:18:00;17.20;;;9.23;;
77870;SDS011;67067;46.850;7.578;2023-02-28T04:19:05;18.27;;;9.73;;
77870;SDS011;67067;46.850;7.578;2023-02-28T04:20:07;17.00;;;9.00;;
77870;SDS011;67067;46.850;7.578;2023-02-28T04:21:10;17.05;;;9.07;;
77870;SDS011;67067;46.850;7.578;2023-02-28T04:22:11;18.83;;;9.45;;
77870;SDS011;67067;46.850;7.578;2023-02-28T04:23:12;19.87;;;9.40;;
77870;SDS011;67067;46.850;7.578;2023-02-28T04:24:17;17.52;;;9.60;;
77870;SDS011;67067;46.850;7.578;2023-02-28T04:25:24;17.65;;;8.88;;
77870;SDS011;67067;46.850;7.578;2023-02-28T04:26:25;20.30;;;10.27;;
77870;SDS011;67067;46.850;7.578;2023-02-28T04:27:27;19.77;;;9.82;;
77870;SDS011;67067;46.850;7.578;2023-02-28T04:28:28;20.03;;;9.97;;
77870;SDS011;67067;46.850;7.578;2023-02-28T04:29:29;18.37;;;8.73;;
77870;SDS011;67067;46.850;7.578;2023-02-28T04:30:32;17.13;;;9.10;;
77870;SDS011;67067;46.850;7.578;2023-02-28T04:31:34;17.48;;;9.88;;
77870;SDS011;67067;46.850;7.578;2023-02-28T04:32:35;18.90;;;9.17;;
77870;SDS011;67067;46.850;7.578;2023-02-28T04:33:38;20.27;;;10.23;;
77870;SDS011;67067;46.850;7.578;2023-02-28T04:34:38;17.47;;;8.80;;
77870;SDS011;67067;46.850;7.578;2023-02-28T04:35:39;20.97;;;10.00;;
77870;SDS011;67067;46.850;7.578;2023-02-28T04:36:42;18.45;;;9.77;;
77870;SDS011;67067;46.850;7.578;2023-02-28T04:37:45;19.25;;;9.57;;
77870;SDS011;67067;46.850;7.578;2023-02-28T04:38:46;18.47;;;9.73;;
77870;SDS011;67067;46.850;7.578;2023-02-28T04:39:46;19.03;;;10.10;;
77870;SDS011;67067;46.850;7.578;2023-02-28T04:40:47;19.80;;;10.10;;
77870;SDS011;67067;46.850;7.578;2023-02-28T04:41:50;20.30;;;9.63;;
77870;SDS011;67067;46.850;7.578;2023-02-28T04:42:51;21.03;;;9.67;;
77870;SDS011;67067;46.850;7.578;2023-02-28T04:43:54;18.83;;;9.52;;
77870;SDS011;67067;46.850;7.578;2023-02-28T04:44:55;19.13;;;9.40;;
77870;SDS011;67067;46.850;7.578;2023-02-28T04:45:56;17.20;;;9.53;;
77870;SDS011;67067;46.850;7.578;2023-02-28T04:47:02;20.25;;;9.98;;
77870;SDS011;67067;46.850;7.578;2023-02-28T04:48:03;21.13;;;9.90;;
77870;SDS011;67067;46.850;7.578;2023-02-28T04:49:06;17.58;;;9.63;;
77870;SDS011;67067;46.850;7.578;2023-02-28T04:50:09;19.88;;;10.02;;
77870;SDS011;67067;46.850;7.578;2023-02-28T04:51:13;18.65;;;9.57;;
77870;SDS011;67067;46.850;7.578;2023-02-28T04:52:17;22.08;;;10.45;;
77870;SDS011;67067;46.850;7.578;2023-02-28T04:53:18;19.67;;;9.75;;
77870;SDS011;67067;46.850;7.578;2023-02-28T04:54:19;19.15;;;9.57;;
77870;SDS011;67067;46.850;7.578;2023-02-28T04:55:22;19.40;;;9.73;;
77870;SDS011;67067;46.850;7.578;2023-02-28T04:56:22;19.43;;;9.83;;
77870;SDS011;67067;46.850;7.578;2023-02-28T04:57:25;22.02;;;10.70;;
77870;SDS011;67067;46.850;7.578;2023-02-28T04:58:26;20.00;;;9.73;;
77870;SDS011;67067;46.850;7.578;2023-02-28T04:59:26;18.73;;;9.67;;
77870;SDS011;67067;46.850;7.578;2023-02-28T05:00:27;21.30;;;10.13;;
77870;SDS011;67067;46.850;7.578;2023-02-28T05:01:28;20.13;;;10.27;;
77870;SDS011;67067;46.850;7.578;2023-02-28T05:02:30;19.33;;;9.88;;
77870;SDS011;67067;46.850;7.578;2023-02-28T05:03:38;20.23;;;10.20;;
77870;SDS011;67067;46.850;7.578;2023-02-28T05:04:40;19.90;;;9.80;;
77870;SDS011;67067;46.850;7.578;2023-02-28T05:05:41;21.80;;;10.33;;
77870;SDS011;67067;46.850;7.578;2023-02-28T05:06:41;19.13;;;9.40;;
77870;SDS011;67067;46.850;7.578;2023-02-28T05:07:42;18.70;;;9.70;;
77870;SDS011;67067;46.850;7.578;2023-02-28T05:08:43;20.47;;;10.20;;
77870;SDS011;67067;46.850;7.578;2023-02-28T05:09:43;21.23;;;9.90;;
77870;SDS011;67067;46.850;7.578;2023-02-28T05:10:44;19.43;;;9.87;;
77870;SDS011;67067;46.850;7.578;2023-02-28T05:11:46;20.05;;;10.10;;
77870;SDS011;67067;46.850;7.578;2023-02-28T05:12:47;19.30;;;9.40;;
77870;SDS011;67067;46.850;7.578;2023-02-28T05:13:48;19.35;;;9.90;;
77870;SDS011;67067;46.850;7.578;2023-02-28T05:14:49;21.17;;;10.23;;
77870;SDS011;67067;46.850;7.578;2023-02-28T05:15:49;16.77;;;8.70;;
77870;SDS011;67067;46.850;7.578;2023-02-28T05:16:50;20.77;;;9.43;;
77870;SDS011;67067;46.850;7.578;2023-02-28T05:17:50;17.77;;;9.80;;
77870;SDS011;67067;46.850;7.578;2023-02-28T05:18:50;18.93;;;9.97;;
77870;SDS011;67067;46.850;7.578;2023-02-28T05:19:53;19.40;;;10.02;;
77870;SDS011;67067;46.850;7.578;2023-02-28T05:20:54;18.13;;;9.83;;
77870;SDS011;67067;46.850;7.578;2023-02-28T05:21:54;19.97;;;9.93;;
77870;SDS011;67067;46.850;7.578;2023-02-28T05:22:58;17.95;;;9.73;;
77870;SDS011;67067;46.850;7.578;2023-02-28T05:25:12;18.90;;;9.57;;
77870;SDS011;67067;46.850;7.578;2023-02-28T05:26:16;19.55;;;9.75;;
77870;SDS011;67067;46.850;7.578;2023-02-28T05:27:16;19.00;;;9.23;;
77870;SDS011;67067;46.850;7.578;2023-02-28T05:28:17;20.07;;;10.33;;
77870;SDS011;67067;46.850;7.578;2023-02-28T05:29:17;18.57;;;9.63;;
77870;SDS011;67067;46.850;7.578;2023-02-28T05:30:18;19.37;;;9.90;;
77870;SDS011;67067;46.850;7.578;2023-02-28T05:42:44;21.23;;;10.57;;
77870;SDS011;67067;46.850;7.578;2023-02-28T05:43:44;22.87;;;10.10;;
77870;SDS011;67067;46.850;7.578;2023-02-28T05:44:46;21.02;;;10.52;;
77870;SDS011;67067;46.850;7.578;2023-02-28T05:45:46;22.17;;;10.95;;
77870;SDS011;67067;46.850;7.578;2023-02-28T05:46:47;19.60;;;10.23;;
77870;SDS011;67067;46.850;7.578;2023-02-28T05:47:47;19.83;;;10.03;;
77870;SDS011;67067;46.850;7.578;2023-02-28T05:48:48;20.47;;;10.60;;
77870;SDS011;67067;46.850;7.578;2023-02-28T05:49:49;20.30;;;9.83;;
77870;SDS011;67067;46.850;7.578;2023-02-28T05:50:49;21.80;;;10.57;;
77870;SDS011;67067;46.850;7.578;2023-02-28T05:51:50;20.57;;;10.17;;
77870;SDS011;67067;46.850;7.578;2023-02-28T05:52:51;19.87;;;10.10;;
77870;SDS011;67067;46.850;7.578;2023-02-28T05:53:54;22.98;;;10.38;;
77870;SDS011;67067;46.850;7.578;2023-02-28T05:54:54;22.53;;;11.03;;
77870;SDS011;67067;46.850;7.578;2023-02-28T05:55:55;18.47;;;9.53;;
77870;SDS011;67067;46.850;7.578;2023-02-28T05:56:56;20.77;;;9.57;;
77870;SDS011;67067;46.850;7.578;2023-02-28T05:57:59;19.48;;;9.77;;
77870;SDS011;67067;46.850;7.578;2023-02-28T05:58:59;21.00;;;10.40;;
77870;SDS011;67067;46.850;7.578;2023-02-28T06:00:00;22.10;;;9.73;;
77870;SDS011;67067;46.850;7.578;2023-02-28T06:01:01;20.33;;;10.13;;
77870;SDS011;67067;46.850;7.578;2023-02-28T06:02:22;23.15;;;11.52;;
77870;SDS011;67067;46.850;7.578;2023-02-28T06:03:24;35.22;;;18.80;;
77870;SDS011;67067;46.850;7.578;2023-02-28T06:04:25;21.40;;;10.93;;
77870;SDS011;67067;46.850;7.578;2023-02-28T06:05:26;21.03;;;10.20;;
77870;SDS011;67067;46.850;7.578;2023-02-28T06:06:26;21.17;;;10.60;;
77870;SDS011;67067;46.850;7.578;2023-02-28T06:07:27;22.57;;;10.10;;
77870;SDS011;67067;46.850;7.578;2023-02-28T06:08:27;21.27;;;11.27;;
77870;SDS011;67067;46.850;7.578;2023-02-28T06:09:30;21.33;;;10.05;;
77870;SDS011;67067;46.850;7.578;2023-02-28T06:10:31;20.13;;;10.25;;
77870;SDS011;67067;46.850;7.578;2023-02-28T06:11:32;21.60;;;10.97;;
77870;SDS011;67067;46.850;7.578;2023-02-28T06:12:33;20.48;;;10.45;;
77870;SDS011;67067;46.850;7.578;2023-02-28T06:13:33;21.97;;;11.17;;
77870;SDS011;67067;46.850;7.578;2023-02-28T06:14:34;20.67;;;10.70;;
77870;SDS011;67067;46.850;7.578;2023-02-28T06:15:36;19.48;;;10.80;;
77870;SDS011;67067;46.850;7.578;2023-02-28T06:16:36;19.57;;;10.07;;
77870;SDS011;67067;46.850;7.578;2023-02-28T06:17:37;21.57;;;10.20;;
77870;SDS011;67067;46.850;7.578;2023-02-28T06:18:37;22.87;;;10.47;;
77870;SDS011;67067;46.850;7.578;2023-02-28T06:19:38;20.90;;;10.35;;
77870;SDS011;67067;46.850;7.578;2023-02-28T06:20:39;22.90;;;10.67;;
77870;SDS011;67067;46.850;7.578;2023-02-28T06:21:42;22.50;;;10.52;;
77870;SDS011;67067;46.850;7.578;2023-02-28T06:22:43;21.38;;;10.95;;
77870;SDS011;67067;46.850;7.578;2023-02-28T06:23:44;20.13;;;10.37;;
77870;SDS011;67067;46.850;7.578;2023-02-28T06:24:44;22.92;;;11.07;;
77870;SDS011;67067;46.850;7.578;2023-02-28T06:25:45;22.10;;;10.27;;
77870;SDS011;67067;46.850;7.578;2023-02-28T06:26:46;23.25;;;10.80;;
77870;SDS011;67067;46.850;7.578;2023-02-28T06:27:47;22.58;;;11.43;;
77870;SDS011;67067;46.850;7.578;2023-02-28T06:28:48;22.25;;;10.75;;
77870;SDS011;67067;46.850;7.578;2023-02-28T06:29:53;20.00;;;10.15;;
77870;SDS011;67067;46.850;7.578;2023-02-28T06:30:54;21.60;;;10.55;;
77870;SDS011;67067;46.850;7.578;2023-02-28T06:31:55;23.10;;;10.53;;
77870;SDS011;67067;46.850;7.578;2023-02-28T06:32:58;22.33;;;11.45;;
77870;SDS011;67067;46.850;7.578;2023-02-28T06:33:58;23.13;;;11.37;;
77870;SDS011;67067;46.850;7.578;2023-02-28T06:34:59;21.67;;;10.80;;
77870;SDS011;67067;46.850;7.578;2023-02-28T06:36:02;21.80;;;10.93;;
77870;SDS011;67067;46.850;7.578;2023-02-28T06:37:02;20.90;;;10.85;;
77870;SDS011;67067;46.850;7.578;2023-02-28T06:38:03;22.27;;;10.63;;
77870;SDS011;67067;46.850;7.578;2023-02-28T06:39:04;22.63;;;11.53;;
77870;SDS011;67067;46.850;7.578;2023-02-28T06:40:05;21.20;;;10.77;;
77870;SDS011;67067;46.850;7.578;2023-02-28T06:42:10;19.30;;;10.05;;
77870;SDS011;67067;46.850;7.578;2023-02-28T06:43:10;20.73;;;10.90;;
77870;SDS011;67067;46.850;7.578;2023-02-28T06:44:14;19.08;;;10.05;;
77870;SDS011;67067;46.850;7.578;2023-02-28T06:45:16;22.48;;;10.25;;
77870;SDS011;67067;46.850;7.578;2023-02-28T06:46:17;23.20;;;11.43;;
77870;SDS011;67067;46.850;7.578;2023-02-28T06:47:17;24.30;;;11.57;;
77870;SDS011;67067;46.850;7.578;2023-02-28T06:48:21;22.70;;;11.02;;
77870;SDS011;67067;46.850;7.578;2023-02-28T06:49:24;24.38;;;11.68;;
77870;SDS011;67067;46.850;7.578;2023-02-28T06:50:24;23.20;;;11.47;;
77870;SDS011;67067;46.850;7.578;2023-02-28T06:51:29;23.08;;;11.93;;
77870;SDS011;67067;46.850;7.578;2023-02-28T06:52:34;20.58;;;10.13;;
77870;SDS011;67067;46.850;7.578;2023-02-28T06:53:37;24.85;;;11.20;;
77870;SDS011;67067;46.850;7.578;2023-02-28T06:54:38;21.55;;;10.50;;
77870;SDS011;67067;46.850;7.578;2023-02-28T06:55:39;23.47;;;10.10;;
77870;SDS011;67067;46.850;7.578;2023-02-28T06:56:39;20.13;;;10.33;;
77870;SDS011;67067;46.850;7.578;2023-02-28T06:57:40;21.70;;;11.03;;
77870;SDS011;67067;46.850;7.578;2023-02-28T06:58:40;21.87;;;11.07;;
77870;SDS011;67067;46.850;7.578;2023-02-28T06:59:41;20.67;;;10.60;;
77870;SDS011;67067;46.850;7.578;2023-02-28T07:00:42;24.40;;;11.27;;
77870;SDS011;67067;46.850;7.578;2023-02-28T07:02:44;25.15;;;11.07;;
77870;SDS011;67067;46.850;7.578;2023-02-28T07:03:45;21.33;;;10.93;;
77870;SDS011;67067;46.850;7.578;2023-02-28T07:04:48;20.70;;;10.02;;
77870;SDS011;67067;46.850;7.578;2023-02-28T07:05:48;20.77;;;10.37;;
77870;SDS011;67067;46.850;7.578;2023-02-28T07:06:49;19.77;;;9.93;;
77870;SDS011;67067;46.850;7.578;2023-02-28T07:07:49;21.03;;;10.17;;
77870;SDS011;67067;46.850;7.578;2023-02-28T07:08:52;23.42;;;10.35;;
77870;SDS011;67067;46.850;7.578;2023-02-28T07:09:53;22.65;;;10.10;;
77870;SDS011;67067;46.850;7.578;2023-02-28T07:10:54;30.43;;;14.57;;
77870;SDS011;67067;46.850;7.578;2023-02-28T07:12:56;23.58;;;11.50;;
77870;SDS011;67067;46.850;7.578;2023-02-28T07:13:57;21.60;;;10.50;;